sensor_id;sensor_type;location;lat;lon;timestamp;temperature;humidity
3416;DHT22;1721;51.238;9.562;2023-09-12T00:01:09;20.00;96.10
3416;DHT22;1721;51.238;9.562;2023-09-12T00:03:35;20.00;96.10
3416;DHT22;1721;51.238;9.562;2023-09-12T00:06:02;20.00;96.10
3416;DHT22;1721;51.238;9.562;2023-09-12T00:08:28;20.00;96.20
3416;DHT22;1721;51.238;9.562;2023-09-12T00:13:25;20.00;96.30
3416;DHT22;1721;51.238;9.562;2023-09-12T00:15:53;20.00;96.30
3416;DHT22;1721;51.238;9.562;2023-09-12T00:18:19;20.00;96.30
3416;DHT22;1721;51.238;9.562;2023-09-12T00:20:45;20.00;96.40
3416;DHT22;1721;51.238;9.562;2023-09-12T00:23:10;20.00;96.70
3416;DHT22;1721;51.238;9.562;2023-09-12T00:25:36;20.00;96.40
3416;DHT22;1721;51.238;9.562;2023-09-12T00:28:01;20.00;96.50
3416;DHT22;1721;51.238;9.562;2023-09-12T00:30:34;20.00;96.50
3416;DHT22;1721;51.238;9.562;2023-09-12T00:32:59;20.10;96.60
3416;DHT22;1721;51.238;9.562;2023-09-12T00:35:25;20.10;96.60
3416;DHT22;1721;51.238;9.562;2023-09-12T00:37:50;20.10;96.70
3416;DHT22;1721;51.238;9.562;2023-09-12T00:40:16;20.10;96.70
3416;DHT22;1721;51.238;9.562;2023-09-12T00:42:42;20.10;96.80
3416;DHT22;1721;51.238;9.562;2023-09-12T00:45:07;20.10;97.30
3416;DHT22;1721;51.238;9.562;2023-09-12T00:47:33;20.00;97.10
3416;DHT22;1721;51.238;9.562;2023-09-12T00:49:59;20.00;97.20
3416;DHT22;1721;51.238;9.562;2023-09-12T00:52:27;20.00;97.30
3416;DHT22;1721;51.238;9.562;2023-09-12T00:54:54;20.00;97.20
3416;DHT22;1721;51.238;9.562;2023-09-12T00:57:21;20.10;97.20
3416;DHT22;1721;51.238;9.562;2023-09-12T00:59:51;20.00;97.10
3416;DHT22;1721;51.238;9.562;2023-09-12T01:02:20;20.00;97.10
3416;DHT22;1721;51.238;9.562;2023-09-12T01:04:47;20.00;97.00
3416;DHT22;1721;51.238;9.562;2023-09-12T01:07:12;20.00;96.90
3416;DHT22;1721;51.238;9.562;2023-09-12T01:09:39;19.90;96.90
3416;DHT22;1721;51.238;9.562;2023-09-12T01:12:05;19.90;96.80
3416;DHT22;1721;51.238;9.562;2023-09-12T01:14:31;19.90;96.80
3416;DHT22;1721;51.238;9.562;2023-09-12T01:16:58;19.80;96.80
3416;DHT22;1721;51.238;9.562;2023-09-12T01:19:24;19.80;96.80
3416;DHT22;1721;51.238;9.562;2023-09-12T01:25:12;19.70;96.80
3416;DHT22;1721;51.238;9.562;2023-09-12T01:27:45;19.70;96.90
3416;DHT22;1721;51.238;9.562;2023-09-12T01:30:12;19.60;96.80
3416;DHT22;1721;51.238;9.562;2023-09-12T01:32:39;19.60;96.90
3416;DHT22;1721;51.238;9.562;2023-09-12T01:35:05;19.60;97.00
3416;DHT22;1721;51.238;9.562;2023-09-12T01:37:31;19.50;97.00
3416;DHT22;1721;51.238;9.562;2023-09-12T01:39:57;19.50;97.10
3416;DHT22;1721;51.238;9.562;2023-09-12T01:42:23;19.50;97.00
3416;DHT22;1721;51.238;9.562;2023-09-12T01:44:52;19.50;97.10
3416;DHT22;1721;51.238;9.562;2023-09-12T01:47:19;19.40;97.10
3416;DHT22;1721;51.238;9.562;2023-09-12T01:49:47;19.50;97.10
3416;DHT22;1721;51.238;9.562;2023-09-12T01:52:15;19.40;97.10
3416;DHT22;1721;51.238;9.562;2023-09-12T01:54:41;19.40;97.10
3416;DHT22;1721;51.238;9.562;2023-09-12T01:57:08;19.40;97.20
3416;DHT22;1721;51.238;9.562;2023-09-12T01:59:34;19.40;97.10
3416;DHT22;1721;51.238;9.562;2023-09-12T02:02:00;19.40;97.00
3416;DHT22;1721;51.238;9.562;2023-09-12T02:04:25;19.20;97.70
3416;DHT22;1721;51.238;9.562;2023-09-12T02:06:51;19.20;97.60
3416;DHT22;1721;51.238;9.562;2023-09-12T02:09:16;19.20;97.50
3416;DHT22;1721;51.238;9.562;2023-09-12T02:11:42;19.20;97.40
3416;DHT22;1721;51.238;9.562;2023-09-12T02:14:08;19.20;97.30
3416;DHT22;1721;51.238;9.562;2023-09-12T02:16:36;19.20;97.30
3416;DHT22;1721;51.238;9.562;2023-09-12T02:19:03;19.20;97.30
3416;DHT22;1721;51.238;9.562;2023-09-12T02:21:35;19.10;97.20
3416;DHT22;1721;51.238;9.562;2023-09-12T02:24:00;19.10;97.20
3416;DHT22;1721;51.238;9.562;2023-09-12T02:26:26;19.10;97.10
3416;DHT22;1721;51.238;9.562;2023-09-12T02:28:51;19.10;97.10
3416;DHT22;1721;51.238;9.562;2023-09-12T02:31:17;19.00;97.10
3416;DHT22;1721;51.238;9.562;2023-09-12T02:33:44;19.00;97.20
3416;DHT22;1721;51.238;9.562;2023-09-12T02:36:10;19.00;97.10
3416;DHT22;1721;51.238;9.562;2023-09-12T02:38:35;19.00;97.10
3416;DHT22;1721;51.238;9.562;2023-09-12T02:41:01;19.00;97.10
3416;DHT22;1721;51.238;9.562;2023-09-12T02:43:28;19.00;97.00
3416;DHT22;1721;51.238;9.562;2023-09-12T02:45:54;19.00;97.00
3416;DHT22;1721;51.238;9.562;2023-09-12T02:48:19;18.90;97.00
3416;DHT22;1721;51.238;9.562;2023-09-12T02:50:45;18.90;96.90
3416;DHT22;1721;51.238;9.562;2023-09-12T02:53:10;18.80;97.20
3416;DHT22;1721;51.238;9.562;2023-09-12T02:55:39;18.80;97.20
3416;DHT22;1721;51.238;9.562;2023-09-12T02:58:06;18.80;97.20
3416;DHT22;1721;51.238;9.562;2023-09-12T03:00:31;18.90;97.10
3416;DHT22;1721;51.238;9.562;2023-09-12T03:02:57;18.80;97.00
3416;DHT22;1721;51.238;9.562;2023-09-12T03:05:22;18.80;97.10
3416;DHT22;1721;51.238;9.562;2023-09-12T03:07:48;18.90;97.10
3416;DHT22;1721;51.238;9.562;2023-09-12T03:10:14;18.80;97.00
3416;DHT22;1721;51.238;9.562;2023-09-12T03:12:40;18.80;97.00
3416;DHT22;1721;51.238;9.562;2023-09-12T03:15:06;18.80;97.10
3416;DHT22;1721;51.238;9.562;2023-09-12T03:17:32;18.80;97.10
3416;DHT22;1721;51.238;9.562;2023-09-12T03:19:57;18.80;97.10
3416;DHT22;1721;51.238;9.562;2023-09-12T03:22:23;18.70;97.00
3416;DHT22;1721;51.238;9.562;2023-09-12T03:24:49;18.70;97.10
3416;DHT22;1721;51.238;9.562;2023-09-12T03:27:15;18.70;97.10
3416;DHT22;1721;51.238;9.562;2023-09-12T03:29:40;18.70;97.10
3416;DHT22;1721;51.238;9.562;2023-09-12T03:32:06;18.70;97.10
3416;DHT22;1721;51.238;9.562;2023-09-12T03:34:31;18.70;97.10
3416;DHT22;1721;51.238;9.562;2023-09-12T03:36:57;18.70;97.10
3416;DHT22;1721;51.238;9.562;2023-09-12T03:39:23;18.70;97.10
3416;DHT22;1721;51.238;9.562;2023-09-12T03:41:48;18.60;97.10
3416;DHT22;1721;51.238;9.562;2023-09-12T03:44:14;18.60;97.20
3416;DHT22;1721;51.238;9.562;2023-09-12T03:46:39;18.60;97.30
3416;DHT22;1721;51.238;9.562;2023-09-12T03:49:05;18.60;97.30
3416;DHT22;1721;51.238;9.562;2023-09-12T03:51:30;18.60;97.20
3416;DHT22;1721;51.238;9.562;2023-09-12T03:53:56;18.50;97.30
3416;DHT22;1721;51.238;9.562;2023-09-12T03:56:22;18.60;97.40
3416;DHT22;1721;51.238;9.562;2023-09-12T03:58:47;18.50;97.30
3416;DHT22;1721;51.238;9.562;2023-09-12T04:01:13;18.50;97.30
3416;DHT22;1721;51.238;9.562;2023-09-12T04:03:39;18.50;97.30
3416;DHT22;1721;51.238;9.562;2023-09-12T04:06:04;18.50;97.30
3416;DHT22;1721;51.238;9.562;2023-09-12T04:08:30;18.50;97.20
3416;DHT22;1721;51.238;9.562;2023-09-12T04:10:57;18.50;97.20
3416;DHT22;1721;51.238;9.562;2023-09-12T04:13:23;18.60;97.20
3416;DHT22;1721;51.238;9.562;2023-09-12T04:15:48;18.50;97.10
3416;DHT22;1721;51.238;9.562;2023-09-12T04:18:14;18.50;97.10
3416;DHT22;1721;51.238;9.562;2023-09-12T04:20:39;18.50;97.00
3416;DHT22;1721;51.238;9.562;2023-09-12T04:23:05;18.40;97.00
3416;DHT22;1721;51.238;9.562;2023-09-12T04:25:32;18.40;97.00
3416;DHT22;1721;51.238;9.562;2023-09-12T04:27:58;18.40;97.00
3416;DHT22;1721;51.238;9.562;2023-09-12T04:30:24;18.30;97.10
3416;DHT22;1721;51.238;9.562;2023-09-12T04:32:49;18.40;97.30
3416;DHT22;1721;51.238;9.562;2023-09-12T04:35:15;18.40;97.20
3416;DHT22;1721;51.238;9.562;2023-09-12T04:37:41;18.30;97.10
3416;DHT22;1721;51.238;9.562;2023-09-12T04:40:07;18.30;97.30
3416;DHT22;1721;51.238;9.562;2023-09-12T04:42:34;18.30;97.30
3416;DHT22;1721;51.238;9.562;2023-09-12T04:44:59;18.30;97.30
3416;DHT22;1721;51.238;9.562;2023-09-12T04:47:25;18.30;97.20
3416;DHT22;1721;51.238;9.562;2023-09-12T04:49:50;18.30;97.20
3416;DHT22;1721;51.238;9.562;2023-09-12T04:52:17;18.30;97.10
3416;DHT22;1721;51.238;9.562;2023-09-12T04:54:43;18.30;97.20
3416;DHT22;1721;51.238;9.562;2023-09-12T04:57:08;18.20;97.10
3416;DHT22;1721;51.238;9.562;2023-09-12T04:59:34;18.30;97.10
3416;DHT22;1721;51.238;9.562;2023-09-12T05:02:00;18.30;97.10
3416;DHT22;1721;51.238;9.562;2023-09-12T05:04:25;18.30;97.20
3416;DHT22;1721;51.238;9.562;2023-09-12T05:06:51;18.30;97.10
3416;DHT22;1721;51.238;9.562;2023-09-12T05:09:16;18.30;97.20
3416;DHT22;1721;51.238;9.562;2023-09-12T05:11:42;18.30;97.20
3416;DHT22;1721;51.238;9.562;2023-09-12T05:14:09;18.30;97.30
3416;DHT22;1721;51.238;9.562;2023-09-12T05:16:35;18.30;97.40
3416;DHT22;1721;51.238;9.562;2023-09-12T05:19:00;18.30;97.40
3416;DHT22;1721;51.238;9.562;2023-09-12T05:21:26;18.40;97.40
3416;DHT22;1721;51.238;9.562;2023-09-12T05:23:52;18.40;97.70
3416;DHT22;1721;51.238;9.562;2023-09-12T05:26:18;18.50;97.50
3416;DHT22;1721;51.238;9.562;2023-09-12T05:28:43;18.50;97.40
3416;DHT22;1721;51.238;9.562;2023-09-12T05:31:09;18.40;97.70
3416;DHT22;1721;51.238;9.562;2023-09-12T05:33:34;18.40;98.00
3416;DHT22;1721;51.238;9.562;2023-09-12T05:36:00;18.40;97.90
3416;DHT22;1721;51.238;9.562;2023-09-12T05:38:26;18.50;98.00
3416;DHT22;1721;51.238;9.562;2023-09-12T05:40:52;18.50;98.30
3416;DHT22;1721;51.238;9.562;2023-09-12T05:43:18;18.70;98.40
3416;DHT22;1721;51.238;9.562;2023-09-12T05:45:44;18.90;98.40
3416;DHT22;1721;51.238;9.562;2023-09-12T05:48:09;19.10;98.40
3416;DHT22;1721;51.238;9.562;2023-09-12T05:50:36;19.20;98.40
3416;DHT22;1721;51.238;9.562;2023-09-12T05:53:02;19.50;98.50
3416;DHT22;1721;51.238;9.562;2023-09-12T05:55:28;19.70;98.50
3416;DHT22;1721;51.238;9.562;2023-09-12T05:57:54;20.00;98.50
3416;DHT22;1721;51.238;9.562;2023-09-12T06:00:20;20.10;98.50
3416;DHT22;1721;51.238;9.562;2023-09-12T06:02:46;20.30;98.60
3416;DHT22;1721;51.238;9.562;2023-09-12T06:05:12;20.40;98.60
3416;DHT22;1721;51.238;9.562;2023-09-12T06:07:38;20.50;98.60
3416;DHT22;1721;51.238;9.562;2023-09-12T06:10:06;20.60;98.60
3416;DHT22;1721;51.238;9.562;2023-09-12T06:12:32;20.70;98.70
3416;DHT22;1721;51.238;9.562;2023-09-12T06:14:58;20.70;98.70
3416;DHT22;1721;51.238;9.562;2023-09-12T06:17:24;20.90;98.80
3416;DHT22;1721;51.238;9.562;2023-09-12T06:19:50;20.90;98.80
3416;DHT22;1721;51.238;9.562;2023-09-12T06:22:16;20.70;98.60
3416;DHT22;1721;51.238;9.562;2023-09-12T06:24:43;20.70;98.90
3416;DHT22;1721;51.238;9.562;2023-09-12T06:27:08;20.70;99.00
3416;DHT22;1721;51.238;9.562;2023-09-12T06:29:35;20.90;99.00
3416;DHT22;1721;51.238;9.562;2023-09-12T06:32:00;20.90;98.70
3416;DHT22;1721;51.238;9.562;2023-09-12T06:34:27;21.00;98.70
3416;DHT22;1721;51.238;9.562;2023-09-12T06:36:53;21.10;98.50
3416;DHT22;1721;51.238;9.562;2023-09-12T06:39:18;21.10;98.40
3416;DHT22;1721;51.238;9.562;2023-09-12T06:41:44;21.20;98.20
3416;DHT22;1721;51.238;9.562;2023-09-12T06:44:10;21.30;98.30
3416;DHT22;1721;51.238;9.562;2023-09-12T06:46:37;21.40;98.20
3416;DHT22;1721;51.238;9.562;2023-09-12T06:49:03;21.50;98.10
3416;DHT22;1721;51.238;9.562;2023-09-12T06:51:29;21.40;97.90
3416;DHT22;1721;51.238;9.562;2023-09-12T06:53:54;21.50;98.00
3416;DHT22;1721;51.238;9.562;2023-09-12T06:56:20;21.60;97.90
3416;DHT22;1721;51.238;9.562;2023-09-12T06:58:47;21.50;97.90
3416;DHT22;1721;51.238;9.562;2023-09-12T07:01:13;21.60;98.00
3416;DHT22;1721;51.238;9.562;2023-09-12T07:03:39;21.60;97.90
3416;DHT22;1721;51.238;9.562;2023-09-12T07:06:05;21.50;97.90
3416;DHT22;1721;51.238;9.562;2023-09-12T07:08:31;21.50;97.90
3416;DHT22;1721;51.238;9.562;2023-09-12T07:10:57;21.40;97.90
3416;DHT22;1721;51.238;9.562;2023-09-12T07:13:23;21.30;98.00
3416;DHT22;1721;51.238;9.562;2023-09-12T07:15:52;21.30;98.20
3416;DHT22;1721;51.238;9.562;2023-09-12T07:18:17;21.10;98.60
3416;DHT22;1721;51.238;9.562;2023-09-12T07:20:44;21.10;99.00
3416;DHT22;1721;51.238;9.562;2023-09-12T07:23:10;21.20;98.90
3416;DHT22;1721;51.238;9.562;2023-09-12T07:25:40;21.20;98.60
3416;DHT22;1721;51.238;9.562;2023-09-12T07:28:09;21.20;99.00
3416;DHT22;1721;51.238;9.562;2023-09-12T07:30:35;21.40;99.10
3416;DHT22;1721;51.238;9.562;2023-09-12T07:33:02;21.50;99.10
3416;DHT22;1721;51.238;9.562;2023-09-12T07:35:28;21.50;99.40
3416;DHT22;1721;51.238;9.562;2023-09-12T07:37:56;21.50;99.50
3416;DHT22;1721;51.238;9.562;2023-09-12T07:40:21;21.70;99.30
3416;DHT22;1721;51.238;9.562;2023-09-12T07:42:47;21.90;99.30
3416;DHT22;1721;51.238;9.562;2023-09-12T07:45:12;21.90;98.90
3416;DHT22;1721;51.238;9.562;2023-09-12T07:47:39;21.90;98.70
3416;DHT22;1721;51.238;9.562;2023-09-12T07:50:05;21.90;98.60
3416;DHT22;1721;51.238;9.562;2023-09-12T07:52:33;21.90;98.60
3416;DHT22;1721;51.238;9.562;2023-09-12T07:55:02;21.90;98.60
3416;DHT22;1721;51.238;9.562;2023-09-12T07:57:29;21.80;98.50
3416;DHT22;1721;51.238;9.562;2023-09-12T07:59:57;21.90;98.40
3416;DHT22;1721;51.238;9.562;2023-09-12T08:02:23;21.90;98.30
3416;DHT22;1721;51.238;9.562;2023-09-12T08:04:49;22.00;98.20
3416;DHT22;1721;51.238;9.562;2023-09-12T08:07:16;22.00;98.20
3416;DHT22;1721;51.238;9.562;2023-09-12T08:09:56;22.10;98.00
3416;DHT22;1721;51.238;9.562;2023-09-12T08:12:24;22.20;97.50
3416;DHT22;1721;51.238;9.562;2023-09-12T08:14:49;22.20;97.80
3416;DHT22;1721;51.238;9.562;2023-09-12T08:17:15;22.40;97.90
3416;DHT22;1721;51.238;9.562;2023-09-12T08:19:42;22.60;98.20
3416;DHT22;1721;51.238;9.562;2023-09-12T08:22:09;22.90;97.90
3416;DHT22;1721;51.238;9.562;2023-09-12T08:24:35;23.10;97.50
3416;DHT22;1721;51.238;9.562;2023-09-12T08:27:02;23.20;97.20
3416;DHT22;1721;51.238;9.562;2023-09-12T08:29:28;23.30;97.30
3416;DHT22;1721;51.238;9.562;2023-09-12T08:31:54;23.40;97.20
3416;DHT22;1721;51.238;9.562;2023-09-12T08:34:22;23.50;97.10
3416;DHT22;1721;51.238;9.562;2023-09-12T08:36:48;23.70;96.80
3416;DHT22;1721;51.238;9.562;2023-09-12T08:39:15;23.70;96.50
3416;DHT22;1721;51.238;9.562;2023-09-12T08:41:44;23.80;96.60
3416;DHT22;1721;51.238;9.562;2023-09-12T08:44:13;24.00;96.70
3416;DHT22;1721;51.238;9.562;2023-09-12T08:46:42;24.20;96.70
3416;DHT22;1721;51.238;9.562;2023-09-12T08:49:08;24.30;96.70
3416;DHT22;1721;51.238;9.562;2023-09-12T08:51:35;24.40;96.60
3416;DHT22;1721;51.238;9.562;2023-09-12T08:54:01;24.40;96.40
3416;DHT22;1721;51.238;9.562;2023-09-12T08:56:29;24.50;96.60
3416;DHT22;1721;51.238;9.562;2023-09-12T08:58:56;24.60;96.50
3416;DHT22;1721;51.238;9.562;2023-09-12T09:01:22;24.50;95.70
3416;DHT22;1721;51.238;9.562;2023-09-12T09:03:48;24.60;95.60
3416;DHT22;1721;51.238;9.562;2023-09-12T09:06:14;24.60;95.50
3416;DHT22;1721;51.238;9.562;2023-09-12T09:08:43;24.50;95.40
3416;DHT22;1721;51.238;9.562;2023-09-12T09:11:09;24.50;95.20
3416;DHT22;1721;51.238;9.562;2023-09-12T09:13:36;24.50;95.00
3416;DHT22;1721;51.238;9.562;2023-09-12T09:19:00;24.70;95.30
3416;DHT22;1721;51.238;9.562;2023-09-12T09:21:28;24.80;95.40
3416;DHT22;1721;51.238;9.562;2023-09-12T09:23:56;25.00;94.70
3416;DHT22;1721;51.238;9.562;2023-09-12T09:26:22;25.20;94.60
3416;DHT22;1721;51.238;9.562;2023-09-12T09:29:08;25.40;94.30
3416;DHT22;1721;51.238;9.562;2023-09-12T09:31:34;25.50;94.20
3416;DHT22;1721;51.238;9.562;2023-09-12T09:34:00;25.70;94.20
3416;DHT22;1721;51.238;9.562;2023-09-12T09:36:27;25.80;94.30
3416;DHT22;1721;51.238;9.562;2023-09-12T09:38:52;25.90;93.60
3416;DHT22;1721;51.238;9.562;2023-09-12T09:41:21;26.00;93.40
3416;DHT22;1721;51.238;9.562;2023-09-12T09:43:52;26.10;93.70
3416;DHT22;1721;51.238;9.562;2023-09-12T09:46:18;26.10;93.90
3416;DHT22;1721;51.238;9.562;2023-09-12T09:48:50;26.20;93.80
3416;DHT22;1721;51.238;9.562;2023-09-12T09:51:17;26.10;92.80
3416;DHT22;1721;51.238;9.562;2023-09-12T09:53:43;26.00;93.00
3416;DHT22;1721;51.238;9.562;2023-09-12T09:56:14;25.90;92.90
3416;DHT22;1721;51.238;9.562;2023-09-12T09:58:50;26.10;93.00
3416;DHT22;1721;51.238;9.562;2023-09-12T10:01:21;26.00;93.10
3416;DHT22;1721;51.238;9.562;2023-09-12T10:03:47;26.00;93.00
3416;DHT22;1721;51.238;9.562;2023-09-12T10:06:15;25.80;92.80
3416;DHT22;1721;51.238;9.562;2023-09-12T10:08:44;25.70;93.10
3416;DHT22;1721;51.238;9.562;2023-09-12T10:11:14;25.60;93.20
3416;DHT22;1721;51.238;9.562;2023-09-12T10:13:49;25.70;92.80
3416;DHT22;1721;51.238;9.562;2023-09-12T10:16:16;25.60;93.00
3416;DHT22;1721;51.238;9.562;2023-09-12T10:18:49;25.50;93.30
3416;DHT22;1721;51.238;9.562;2023-09-12T10:21:21;25.50;93.10
3416;DHT22;1721;51.238;9.562;2023-09-12T10:23:50;25.50;93.30
3416;DHT22;1721;51.238;9.562;2023-09-12T10:26:16;25.50;93.60
3416;DHT22;1721;51.238;9.562;2023-09-12T10:28:43;25.50;93.90
3416;DHT22;1721;51.238;9.562;2023-09-12T10:31:11;25.50;93.80
3416;DHT22;1721;51.238;9.562;2023-09-12T10:33:37;25.40;93.80
3416;DHT22;1721;51.238;9.562;2023-09-12T10:36:03;25.30;93.90
3416;DHT22;1721;51.238;9.562;2023-09-12T10:38:32;25.50;93.80
3416;DHT22;1721;51.238;9.562;2023-09-12T10:41:00;25.50;93.70
3416;DHT22;1721;51.238;9.562;2023-09-12T10:43:26;25.50;94.40
3416;DHT22;1721;51.238;9.562;2023-09-12T10:45:53;25.60;93.50
3416;DHT22;1721;51.238;9.562;2023-09-12T10:48:20;25.60;93.10
3416;DHT22;1721;51.238;9.562;2023-09-12T10:50:46;25.60;93.80
3416;DHT22;1721;51.238;9.562;2023-09-12T10:53:12;25.70;93.70
3416;DHT22;1721;51.238;9.562;2023-09-12T10:55:39;25.60;94.40
3416;DHT22;1721;51.238;9.562;2023-09-12T10:58:07;25.60;94.70
3416;DHT22;1721;51.238;9.562;2023-09-12T11:00:34;25.70;94.00
3416;DHT22;1721;51.238;9.562;2023-09-12T11:05:54;25.80;94.00
3416;DHT22;1721;51.238;9.562;2023-09-12T11:08:20;25.90;93.80
3416;DHT22;1721;51.238;9.562;2023-09-12T11:11:17;26.00;93.50
3416;DHT22;1721;51.238;9.562;2023-09-12T11:13:46;26.00;93.00
3416;DHT22;1721;51.238;9.562;2023-09-12T11:16:13;26.00;93.60
3416;DHT22;1721;51.238;9.562;2023-09-12T11:19:17;26.10;93.10
3416;DHT22;1721;51.238;9.562;2023-09-12T11:21:50;26.20;93.20
3416;DHT22;1721;51.238;9.562;2023-09-12T11:24:17;26.10;93.50
3416;DHT22;1721;51.238;9.562;2023-09-12T11:27:02;26.10;94.00
3416;DHT22;1721;51.238;9.562;2023-09-12T11:29:36;26.20;93.90
3416;DHT22;1721;51.238;9.562;2023-09-12T11:32:02;26.30;93.70
3416;DHT22;1721;51.238;9.562;2023-09-12T11:34:35;26.40;93.50
3416;DHT22;1721;51.238;9.562;2023-09-12T11:37:01;26.40;93.20
3416;DHT22;1721;51.238;9.562;2023-09-12T11:39:33;26.50;93.10
3416;DHT22;1721;51.238;9.562;2023-09-12T11:42:01;26.60;92.40
3416;DHT22;1721;51.238;9.562;2023-09-12T11:44:28;26.70;92.80
3416;DHT22;1721;51.238;9.562;2023-09-12T11:46:54;26.70;93.00
3416;DHT22;1721;51.238;9.562;2023-09-12T11:49:20;26.80;92.40
3416;DHT22;1721;51.238;9.562;2023-09-12T11:51:53;26.90;92.40
3416;DHT22;1721;51.238;9.562;2023-09-12T11:54:24;26.90;92.60
3416;DHT22;1721;51.238;9.562;2023-09-12T11:56:50;26.90;92.10
3416;DHT22;1721;51.238;9.562;2023-09-12T11:59:23;27.00;92.30
3416;DHT22;1721;51.238;9.562;2023-09-12T12:01:48;27.00;92.50
3416;DHT22;1721;51.238;9.562;2023-09-12T12:04:15;27.00;92.10
3416;DHT22;1721;51.238;9.562;2023-09-12T12:06:42;27.00;92.20
3416;DHT22;1721;51.238;9.562;2023-09-12T12:09:11;27.10;92.20
3416;DHT22;1721;51.238;9.562;2023-09-12T12:11:42;27.20;91.60
3416;DHT22;1721;51.238;9.562;2023-09-12T12:14:16;27.30;91.40
3416;DHT22;1721;51.238;9.562;2023-09-12T12:16:48;27.30;91.50
3416;DHT22;1721;51.238;9.562;2023-09-12T12:19:14;27.30;91.50
3416;DHT22;1721;51.238;9.562;2023-09-12T12:21:41;27.20;91.40
3416;DHT22;1721;51.238;9.562;2023-09-12T12:24:17;27.40;91.40
3416;DHT22;1721;51.238;9.562;2023-09-12T12:26:45;27.40;91.50
3416;DHT22;1721;51.238;9.562;2023-09-12T12:29:11;27.50;91.30
3416;DHT22;1721;51.238;9.562;2023-09-12T12:31:39;27.50;91.20
3416;DHT22;1721;51.238;9.562;2023-09-12T12:34:06;27.60;90.60
3416;DHT22;1721;51.238;9.562;2023-09-12T12:36:31;27.70;90.70
3416;DHT22;1721;51.238;9.562;2023-09-12T12:38:57;27.80;90.90
3416;DHT22;1721;51.238;9.562;2023-09-12T12:41:28;27.90;91.20
3416;DHT22;1721;51.238;9.562;2023-09-12T12:43:58;27.90;90.50
3416;DHT22;1721;51.238;9.562;2023-09-12T12:46:27;28.00;89.10
3416;DHT22;1721;51.238;9.562;2023-09-12T12:48:55;28.00;89.30
3416;DHT22;1721;51.238;9.562;2023-09-12T12:51:25;28.10;89.50
3416;DHT22;1721;51.238;9.562;2023-09-12T12:54:04;28.10;87.90
3416;DHT22;1721;51.238;9.562;2023-09-12T12:56:31;28.00;90.70
3416;DHT22;1721;51.238;9.562;2023-09-12T12:59:00;28.00;90.40
3416;DHT22;1721;51.238;9.562;2023-09-12T13:01:28;27.90;90.60
3416;DHT22;1721;51.238;9.562;2023-09-12T13:03:54;27.70;89.40
3416;DHT22;1721;51.238;9.562;2023-09-12T13:06:22;27.50;90.00
3416;DHT22;1721;51.238;9.562;2023-09-12T13:08:51;27.60;90.10
3416;DHT22;1721;51.238;9.562;2023-09-12T13:11:17;27.70;89.60
3416;DHT22;1721;51.238;9.562;2023-09-12T13:13:43;27.70;89.60
3416;DHT22;1721;51.238;9.562;2023-09-12T13:16:10;27.50;90.40
3416;DHT22;1721;51.238;9.562;2023-09-12T13:18:37;27.50;90.00
3416;DHT22;1721;51.238;9.562;2023-09-12T13:21:03;27.50;89.40
3416;DHT22;1721;51.238;9.562;2023-09-12T13:23:29;27.40;90.00
3416;DHT22;1721;51.238;9.562;2023-09-12T13:25:55;27.60;88.90
3416;DHT22;1721;51.238;9.562;2023-09-12T13:28:21;27.60;88.30
3416;DHT22;1721;51.238;9.562;2023-09-12T13:30:53;27.30;88.30
3416;DHT22;1721;51.238;9.562;2023-09-12T13:33:19;27.40;87.80
3416;DHT22;1721;51.238;9.562;2023-09-12T13:35:46;27.40;85.50
3416;DHT22;1721;51.238;9.562;2023-09-12T13:38:12;27.50;86.00
3416;DHT22;1721;51.238;9.562;2023-09-12T13:40:40;27.70;86.80
3416;DHT22;1721;51.238;9.562;2023-09-12T13:43:07;27.80;85.10
3416;DHT22;1721;51.238;9.562;2023-09-12T13:45:33;27.60;84.30
3416;DHT22;1721;51.238;9.562;2023-09-12T13:48:00;27.40;85.00
3416;DHT22;1721;51.238;9.562;2023-09-12T13:50:26;27.50;86.40
3416;DHT22;1721;51.238;9.562;2023-09-12T13:52:58;27.70;84.60
3416;DHT22;1721;51.238;9.562;2023-09-12T13:55:36;27.60;86.60
3416;DHT22;1721;51.238;9.562;2023-09-12T13:58:03;27.70;86.70
3416;DHT22;1721;51.238;9.562;2023-09-12T14:00:29;27.60;85.20
3416;DHT22;1721;51.238;9.562;2023-09-12T14:02:56;27.60;86.50
3416;DHT22;1721;51.238;9.562;2023-09-12T14:05:23;27.80;85.60
3416;DHT22;1721;51.238;9.562;2023-09-12T14:07:48;28.00;84.20
3416;DHT22;1721;51.238;9.562;2023-09-12T14:10:15;27.80;81.80
3416;DHT22;1721;51.238;9.562;2023-09-12T14:12:40;27.50;82.00
3416;DHT22;1721;51.238;9.562;2023-09-12T14:15:07;27.20;82.10
3416;DHT22;1721;51.238;9.562;2023-09-12T14:17:33;27.40;83.00
3416;DHT22;1721;51.238;9.562;2023-09-12T14:19:58;27.30;82.10
3416;DHT22;1721;51.238;9.562;2023-09-12T14:22:24;27.10;81.20
3416;DHT22;1721;51.238;9.562;2023-09-12T14:24:49;27.00;82.80
3416;DHT22;1721;51.238;9.562;2023-09-12T14:27:15;27.10;83.50
3416;DHT22;1721;51.238;9.562;2023-09-12T14:29:42;27.00;83.50
3416;DHT22;1721;51.238;9.562;2023-09-12T14:32:11;27.00;85.30
3416;DHT22;1721;51.238;9.562;2023-09-12T14:34:37;26.90;83.80
3416;DHT22;1721;51.238;9.562;2023-09-12T14:37:03;26.80;83.40
3416;DHT22;1721;51.238;9.562;2023-09-12T14:39:30;26.90;84.80
3416;DHT22;1721;51.238;9.562;2023-09-12T14:41:56;26.80;84.90
3416;DHT22;1721;51.238;9.562;2023-09-12T14:44:24;26.90;84.50
3416;DHT22;1721;51.238;9.562;2023-09-12T14:46:51;27.00;84.20
3416;DHT22;1721;51.238;9.562;2023-09-12T14:49:16;26.90;84.90
3416;DHT22;1721;51.238;9.562;2023-09-12T14:51:43;26.90;85.30
3416;DHT22;1721;51.238;9.562;2023-09-12T14:54:09;27.00;86.30
3416;DHT22;1721;51.238;9.562;2023-09-12T14:56:35;27.20;86.20
3416;DHT22;1721;51.238;9.562;2023-09-12T14:59:04;27.40;86.90
3416;DHT22;1721;51.238;9.562;2023-09-12T15:01:31;27.40;85.40
3416;DHT22;1721;51.238;9.562;2023-09-12T15:03:56;27.40;84.80
3416;DHT22;1721;51.238;9.562;2023-09-12T15:06:22;27.40;84.90
3416;DHT22;1721;51.238;9.562;2023-09-12T15:08:49;27.20;85.10
3416;DHT22;1721;51.238;9.562;2023-09-12T15:11:15;27.10;87.20
3416;DHT22;1721;51.238;9.562;2023-09-12T15:13:40;27.30;87.60
3416;DHT22;1721;51.238;9.562;2023-09-12T15:16:06;27.40;89.50
3416;DHT22;1721;51.238;9.562;2023-09-12T15:18:31;27.40;88.80
3416;DHT22;1721;51.238;9.562;2023-09-12T15:20:57;27.10;88.40
3416;DHT22;1721;51.238;9.562;2023-09-12T15:23:23;26.90;88.70
3416;DHT22;1721;51.238;9.562;2023-09-12T15:25:50;26.90;90.40
3416;DHT22;1721;51.238;9.562;2023-09-12T15:28:15;26.90;90.70
3416;DHT22;1721;51.238;9.562;2023-09-12T15:30:41;26.90;90.70
3416;DHT22;1721;51.238;9.562;2023-09-12T15:33:07;27.00;91.10
3416;DHT22;1721;51.238;9.562;2023-09-12T15:35:33;27.10;91.40
3416;DHT22;1721;51.238;9.562;2023-09-12T15:37:58;27.10;91.50
3416;DHT22;1721;51.238;9.562;2023-09-12T15:40:24;27.10;92.20
3416;DHT22;1721;51.238;9.562;2023-09-12T15:42:49;27.00;92.50
3416;DHT22;1721;51.238;9.562;2023-09-12T15:45:15;27.00;92.10
3416;DHT22;1721;51.238;9.562;2023-09-12T15:47:43;27.00;92.00
3416;DHT22;1721;51.238;9.562;2023-09-12T15:50:08;26.90;92.00
3416;DHT22;1721;51.238;9.562;2023-09-12T15:52:34;26.70;92.60
3416;DHT22;1721;51.238;9.562;2023-09-12T15:55:04;26.70;92.20
3416;DHT22;1721;51.238;9.562;2023-09-12T15:57:30;26.70;92.30
3416;DHT22;1721;51.238;9.562;2023-09-12T15:59:56;26.60;92.20
3416;DHT22;1721;51.238;9.562;2023-09-12T16:02:21;26.60;92.30
3416;DHT22;1721;51.238;9.562;2023-09-12T16:04:47;26.60;92.10
3416;DHT22;1721;51.238;9.562;2023-09-12T16:07:12;26.60;92.00
3416;DHT22;1721;51.238;9.562;2023-09-12T16:09:38;26.50;92.00
3416;DHT22;1721;51.238;9.562;2023-09-12T16:12:04;26.40;91.90